createdAt,value
2022-12-03T00:01:11.040Z,91.57
2022-12-03T00:06:12.943Z,91.93
2022-12-03T00:11:14.742Z,91.74
2022-12-03T00:16:16.701Z,91.96
2022-12-03T00:21:18.642Z,91.61
2022-12-03T00:26:20.493Z,91.69
2022-12-03T00:31:24.508Z,91.76
2022-12-03T00:36:26.477Z,91.65
2022-12-03T00:41:29.147Z,91.48
2022-12-03T00:46:31.095Z,91.66
2022-12-03T00:51:33.061Z,92.04
2022-12-03T00:56:34.905Z,91.73
2022-12-03T01:01:36.847Z,92.00
2022-12-03T01:06:39.040Z,91.85
2022-12-03T01:11:41.530Z,91.95
2022-12-03T01:16:44.119Z,92.02
2022-12-03T01:21:48.961Z,91.71
2022-12-03T01:26:50.760Z,91.88
2022-12-03T01:32:11.455Z,91.71
2022-12-03T01:37:14.038Z,91.73
2022-12-03T01:42:18.405Z,91.85
2022-12-03T01:47:27.112Z,91.80
2022-12-03T01:52:32.856Z,91.71
2022-12-03T01:57:37.713Z,91.83
2022-12-03T02:02:39.489Z,92.25
2022-12-03T02:07:42.464Z,92.05
2022-12-03T02:12:51.045Z,92.02
2022-12-03T02:17:53.523Z,92.14
2022-12-03T02:23:11.399Z,92.08
2022-12-03T02:28:13.358Z,92.19
2022-12-03T02:33:15.161Z,92.08
2022-12-03T02:38:21.096Z,92.11
2022-12-03T02:43:23.900Z,92.12
2022-12-03T02:48:29.963Z,92.15
2022-12-03T02:53:38.312Z,92.25
2022-12-03T02:58:41.976Z,92.13
2022-12-03T03:03:45.904Z,92.34
2022-12-03T03:08:48.793Z,92.33
2022-12-03T03:13:50.713Z,92.07
2022-12-03T03:18:52.744Z,92.02
2022-12-03T03:23:54.600Z,92.11
2022-12-03T03:28:57.593Z,92.14
2022-12-03T03:33:59.613Z,92.00
2022-12-03T03:39:01.936Z,92.08
2022-12-03T03:44:07.336Z,92.14
2022-12-03T03:49:10.604Z,92.23
2022-12-03T03:54:13.028Z,92.38
2022-12-03T03:59:15.518Z,92.42
2022-12-03T04:04:20.927Z,92.33
2022-12-03T04:09:22.801Z,92.31
2022-12-03T04:14:24.825Z,92.30
2022-12-03T04:19:26.663Z,92.18
2022-12-03T04:24:28.555Z,92.12
2022-12-03T04:29:30.408Z,92.30
2022-12-03T04:34:51.745Z,92.31
2022-12-03T04:39:54.354Z,92.42
2022-12-03T04:44:58.496Z,92.59
2022-12-03T04:50:00.286Z,92.69
2022-12-03T04:55:02.140Z,92.54
2022-12-03T05:00:05.644Z,92.74
2022-12-03T05:05:07.949Z,92.65
2022-12-03T05:10:10.946Z,92.52
2022-12-03T05:15:12.719Z,92.80
2022-12-03T05:20:33.491Z,92.75
2022-12-03T05:25:35.360Z,92.48
2022-12-03T05:30:37.312Z,92.71
2022-12-03T05:35:39.265Z,92.75
2022-12-03T05:40:41.279Z,92.87
2022-12-03T05:45:44.395Z,92.96
2022-12-03T05:50:47.036Z,92.84
2022-12-03T05:55:48.911Z,92.78
2022-12-03T06:00:50.809Z,92.86
2022-12-03T06:05:52.673Z,93.07
2022-12-03T06:10:54.482Z,92.96
2022-12-03T06:15:56.338Z,92.87
2022-12-03T06:20:58.194Z,92.80
2022-12-03T06:26:00.024Z,92.89
2022-12-03T06:31:01.868Z,92.93
2022-12-03T06:36:03.883Z,92.97
2022-12-03T06:41:05.848Z,93.00
2022-12-03T06:46:07.680Z,92.91
2022-12-03T06:51:09.615Z,93.02
2022-12-03T06:56:11.466Z,92.92
2022-12-03T07:01:13.313Z,92.96
2022-12-03T07:06:15.445Z,92.72
2022-12-03T07:11:32.520Z,93.00
2022-12-03T07:16:35.833Z,92.85
2022-12-03T07:21:38.332Z,92.75
2022-12-03T07:26:40.327Z,92.86
2022-12-03T07:31:42.189Z,93.10
2022-12-03T07:36:44.136Z,93.03
2022-12-03T07:41:46.008Z,92.99
2022-12-03T07:46:48.096Z,92.89
2022-12-03T07:51:54.475Z,92.76
2022-12-03T07:57:01.194Z,92.98
2022-12-03T08:02:03.887Z,92.58
2022-12-03T08:07:06.315Z,92.68
2022-12-03T08:12:17.082Z,92.76
2022-12-03T08:17:19.913Z,92.79
2022-12-03T08:22:22.450Z,92.55
2022-12-03T08:27:24.293Z,92.85
2022-12-03T08:32:26.343Z,92.66
2022-12-03T08:37:29.856Z,92.47
2022-12-03T08:42:42.832Z,92.42
2022-12-03T08:47:44.761Z,92.58
2022-12-03T08:52:46.605Z,92.42
2022-12-03T08:57:48.526Z,92.59
2022-12-03T09:02:59.572Z,92.19
2022-12-03T09:08:01.498Z,92.23
2022-12-03T09:13:03.444Z,91.70
2022-12-03T09:18:07.633Z,91.92
2022-12-03T09:23:09.472Z,91.80
2022-12-03T09:28:11.292Z,91.82
2022-12-03T09:33:14.174Z,92.02
2022-12-03T09:38:15.987Z,92.19
2022-12-03T09:43:18.645Z,92.34
2022-12-03T09:48:21.637Z,92.36
2022-12-03T09:53:26.799Z,92.65
2022-12-03T09:58:34.501Z,92.79
2022-12-03T10:03:41.183Z,92.82
2022-12-03T10:08:43.218Z,92.40
2022-12-03T10:13:46.250Z,92.38
2022-12-03T10:18:54.495Z,92.58
2022-12-03T10:24:25.842Z,92.95
2022-12-03T10:29:33.955Z,92.62
2022-12-03T10:34:38.998Z,92.69
2022-12-03T10:39:56.262Z,92.81
2022-12-03T10:45:37.075Z,92.79
2022-12-03T10:50:50.666Z,92.74
2022-12-03T10:56:04.732Z,92.86
2022-12-03T11:01:16.073Z,93.02
2022-12-03T11:06:20.568Z,92.87
2022-12-03T11:11:28.077Z,93.01
2022-12-03T11:16:42.155Z,92.99
2022-12-03T11:22:05.980Z,93.27
2022-12-03T11:27:10.840Z,93.34
2022-12-03T11:32:39.478Z,93.24
2022-12-03T11:37:41.378Z,93.49
2022-12-03T11:42:45.019Z,93.15
2022-12-03T11:48:13.853Z,93.23
2022-12-03T11:53:24.800Z,92.85
2022-12-03T11:58:29.860Z,92.38
2022-12-03T12:03:34.398Z,92.22
2022-12-03T12:08:42.163Z,92.19
2022-12-03T12:13:43.933Z,92.42
2022-12-03T12:18:55.020Z,92.39
2022-12-03T12:23:57.264Z,92.48
2022-12-03T12:28:59.042Z,92.64
2022-12-03T12:34:01.668Z,92.72
2022-12-03T12:39:10.719Z,92.70
2022-12-03T12:44:15.360Z,92.78
2022-12-03T12:49:21.598Z,92.81
2022-12-03T12:54:23.881Z,92.56
2022-12-03T12:59:26.065Z,92.65
2022-12-03T13:04:30.721Z,92.87
2022-12-03T13:09:33.109Z,92.83
2022-12-03T13:14:37.254Z,93.11
2022-12-03T13:19:48.311Z,93.07
2022-12-03T13:25:57.825Z,92.94
2022-12-03T13:30:54.300Z,92.89
2022-12-03T13:35:56.628Z,93.11
2022-12-03T13:41:01.574Z,92.94
2022-12-03T13:46:03.496Z,93.19
2022-12-03T13:51:26.315Z,93.45
2022-12-03T13:56:30.918Z,93.73
2022-12-03T14:01:33.022Z,93.50
2022-12-03T14:06:34.879Z,93.54
2022-12-03T14:11:55.596Z,93.46
2022-12-03T14:17:00.097Z,93.56
2022-12-03T14:22:03.094Z,93.67
2022-12-03T14:27:04.927Z,93.54
2022-12-03T14:32:06.826Z,93.54
2022-12-03T14:37:08.718Z,93.69
2022-12-03T14:42:13.403Z,93.85
2022-12-03T14:47:18.570Z,94.17
2022-12-03T14:52:20.526Z,94.39
2022-12-03T14:57:22.349Z,94.75
2022-12-03T15:02:24.334Z,95.04
2022-12-03T15:07:26.388Z,95.22
2022-12-03T15:12:28.295Z,95.17
2022-12-03T15:17:32.156Z,95.22
2022-12-03T15:22:34.267Z,95.00
2022-12-03T15:27:36.101Z,95.12
2022-12-03T15:32:37.974Z,95.57
2022-12-03T15:37:40.564Z,95.70
2022-12-03T15:42:43.787Z,95.46
2022-12-03T15:47:46.069Z,95.33
2022-12-03T15:52:47.999Z,95.60
2022-12-03T15:57:50.481Z,95.57
2022-12-03T16:02:53.046Z,95.69
2022-12-03T16:07:55.347Z,95.44
2022-12-03T16:12:57.231Z,95.59
2022-12-03T16:17:59.082Z,95.79
2022-12-03T16:23:00.870Z,96.05
2022-12-03T16:28:02.754Z,96.10
2022-12-03T16:33:04.904Z,96.28
2022-12-03T16:38:06.747Z,96.18
2022-12-03T16:43:10.651Z,96.21
2022-12-03T16:48:12.450Z,96.42
2022-12-03T16:53:16.407Z,96.49
2022-12-03T16:58:21.573Z,96.60
2022-12-03T17:03:24.313Z,96.78
2022-12-03T17:08:28.553Z,96.74
2022-12-03T17:13:30.345Z,96.42
2022-12-03T17:18:32.163Z,96.65
2022-12-03T17:23:33.925Z,96.52
2022-12-03T17:28:35.796Z,96.74
2022-12-03T17:33:37.685Z,96.75
2022-12-03T17:38:41.040Z,96.67
2022-12-03T17:43:42.854Z,96.57
2022-12-03T17:48:44.754Z,96.99
2022-12-03T17:53:46.823Z,96.98
2022-12-03T17:58:48.631Z,96.75
2022-12-03T18:03:50.446Z,96.68
2022-12-03T18:08:52.393Z,96.55
2022-12-03T18:13:54.212Z,96.74
2022-12-03T18:18:57.610Z,97.00
2022-12-03T18:24:02.389Z,96.92
2022-12-03T18:29:04.267Z,96.98
2022-12-03T18:34:06.084Z,96.91
2022-12-03T18:39:18.332Z,96.66
2022-12-03T18:44:20.699Z,96.91
2022-12-03T18:49:22.561Z,96.54
2022-12-03T18:54:24.394Z,96.71
2022-12-03T18:59:26.209Z,96.93
2022-12-03T19:04:28.190Z,96.68
2022-12-03T19:09:30.056Z,96.99
2022-12-03T19:14:33.221Z,96.84
2022-12-03T19:19:36.318Z,97.07
2022-12-03T19:24:38.171Z,97.16
2022-12-03T19:29:40.073Z,96.76
2022-12-03T19:34:41.882Z,96.81
2022-12-03T19:39:43.726Z,96.78
2022-12-03T19:44:45.497Z,97.02
2022-12-03T19:49:47.277Z,97.22
2022-12-03T19:54:49.233Z,97.09
2022-12-03T19:59:51.031Z,97.11
2022-12-03T20:04:52.840Z,97.22
2022-12-03T20:09:54.866Z,97.28
2022-12-03T20:14:57.006Z,97.66
2022-12-03T20:19:58.854Z,97.55
2022-12-03T20:25:00.745Z,97.50
2022-12-03T20:30:02.686Z,97.70
2022-12-03T20:35:04.945Z,97.51
2022-12-03T20:40:07.632Z,97.55
2022-12-03T20:45:10.315Z,97.79
2022-12-03T20:50:12.301Z,97.71
2022-12-03T20:55:14.210Z,97.92
2022-12-03T21:00:16.942Z,98.33
2022-12-03T21:05:18.886Z,98.15
2022-12-03T21:10:36.052Z,98.19
2022-12-03T21:15:37.884Z,98.20
2022-12-03T21:20:44.933Z,98.46
2022-12-03T21:25:46.767Z,97.98
2022-12-03T21:30:48.694Z,97.72
2022-12-03T21:35:50.711Z,98.05
2022-12-03T21:40:52.946Z,98.28
2022-12-03T21:45:55.679Z,98.50
2022-12-03T21:51:17.295Z,98.55
2022-12-03T21:56:19.591Z,98.47
2022-12-03T22:01:24.087Z,98.41
2022-12-03T22:06:26.417Z,98.37
2022-12-03T22:11:28.263Z,98.17
2022-12-03T22:16:30.502Z,98.21
2022-12-03T22:21:32.561Z,98.31
2022-12-03T22:26:35.326Z,98.30
2022-12-03T22:31:38.458Z,98.43
2022-12-03T22:36:40.392Z,98.55
2022-12-03T22:41:42.242Z,98.50
2022-12-03T22:46:44.194Z,98.75
2022-12-03T22:51:47.471Z,98.56
2022-12-03T22:56:49.367Z,98.74
2022-12-03T23:01:51.188Z,98.82
2022-12-03T23:06:53.082Z,98.66
2022-12-03T23:11:55.202Z,98.70
2022-12-03T23:16:56.994Z,98.70
2022-12-03T23:21:58.823Z,98.57
2022-12-03T23:27:00.688Z,98.81
2022-12-03T23:32:02.584Z,98.91
2022-12-03T23:37:04.348Z,98.91
2022-12-03T23:42:06.165Z,99.23
2022-12-03T23:47:07.947Z,98.96
2022-12-03T23:52:09.811Z,98.84
2022-12-03T23:57:12.775Z,98.87
